DTA651 LPPT-FNBJ
Flight info
| Callsign | DTA651 |
|---|---|
| Flight time | N/A |
| Altitude | 39000 |
| Route | DUZOP1X DUZOP DCT OBOLO DCT AMSEL UR722 MAK UM372 BULIS/N0480F370 UR866 OG UR983 EDBET/N0485F390 UR983 GAPAK UA400 VNA DCT VBJ DCT |
| Aircraft | B77W/H-SDE1E2E3FGHIJ2J3J4J5M1RWXY/LB1D1 |
Departure
| Time | N/A |
|---|---|
| Airport | Lisbon Humberto Delgado Airport (LPPT) |
Arrival
| Time | 2026-04-20 20:25 |
|---|---|
| Airport | Dr. Antonio Agostinho Neto International Airport (FNBJ) |
| Time | Latitude | Longitude | Altitude | Speed | Heading |
|---|---|---|---|---|---|
| 2026-04-20 20:05 | -8.28509 | 12.84565 | 38857 ft | 487 kts | 146° |
| 2026-04-20 20:06 | -8.34023 | 12.88504 | 38857 ft | 487 kts | 146° |
| 2026-04-20 20:06 | -8.39514 | 12.92426 | 38821 ft | 483 kts | 146° |
| 2026-04-20 20:06 | -8.42200 | 12.94346 | 38396 ft | 463 kts | 146° |
| 2026-04-20 20:07 | -8.44799 | 12.96205 | 37157 ft | 456 kts | 146° |
| 2026-04-20 20:07 | -8.47412 | 12.98073 | 35228 ft | 466 kts | 145° |
| 2026-04-20 20:07 | -8.50098 | 12.99992 | 33092 ft | 479 kts | 144° |
| 2026-04-20 20:07 | -8.52839 | 13.01952 | 30887 ft | 486 kts | 144° |
| 2026-04-20 20:08 | -8.55613 | 13.03935 | 28842 ft | 485 kts | 143° |
| 2026-04-20 20:08 | -8.58337 | 13.05884 | 27148 ft | 473 kts | 143° |
| 2026-04-20 20:08 | -8.60988 | 13.07784 | 25636 ft | 459 kts | 144° |
| 2026-04-20 20:08 | -8.63550 | 13.09619 | 24193 ft | 447 kts | 144° |
| 2026-04-20 20:09 | -8.66059 | 13.11415 | 22649 ft | 437 kts | 144° |
| 2026-04-20 20:09 | -8.68488 | 13.13153 | 21025 ft | 428 kts | 143° |
| 2026-04-20 20:09 | -8.70893 | 13.14876 | 19489 ft | 419 kts | 143° |
| 2026-04-20 20:09 | -8.73251 | 13.16565 | 17985 ft | 413 kts | 143° |
| 2026-04-20 20:10 | -8.75577 | 13.18230 | 16387 ft | 405 kts | 143° |
| 2026-04-20 20:10 | -8.77849 | 13.19858 | 14990 ft | 395 kts | 143° |
| 2026-04-20 20:10 | -8.80058 | 13.21444 | 13689 ft | 384 kts | 142° |
| 2026-04-20 20:10 | -8.81847 | 13.23282 | 13107 ft | 352 kts | 122° |
| 2026-04-20 20:11 | -8.82850 | 13.25498 | 12609 ft | 347 kts | 105° |
| 2026-04-20 20:11 | -8.83283 | 13.27910 | 12078 ft | 353 kts | 95° |
| 2026-04-20 20:11 | -8.83173 | 13.30415 | 11523 ft | 365 kts | 79° |
| 2026-04-20 20:11 | -8.82517 | 13.32925 | 10968 ft | 371 kts | 75° |
| 2026-04-20 20:12 | -8.81794 | 13.35411 | 10735 ft | 362 kts | 74° |
| 2026-04-20 20:12 | -8.81094 | 13.37811 | 10568 ft | 349 kts | 74° |
| 2026-04-20 20:12 | -8.80436 | 13.40112 | 10437 ft | 326 kts | 75° |
| 2026-04-20 20:13 | -8.79312 | 13.44142 | 10193 ft | 275 kts | 75° |
| 2026-04-20 20:13 | -8.78819 | 13.45934 | 10092 ft | 254 kts | 76° |
| 2026-04-20 20:13 | -8.78351 | 13.47646 | 10030 ft | 260 kts | 76° |
| 2026-04-20 20:13 | -8.77854 | 13.49474 | 9893 ft | 279 kts | 76° |
| 2026-04-20 20:14 | -8.77328 | 13.51408 | 9560 ft | 288 kts | 75° |
| 2026-04-20 20:14 | -8.76795 | 13.53359 | 9306 ft | 283 kts | 75° |
| 2026-04-20 20:14 | -8.76292 | 13.55202 | 9155 ft | 262 kts | 75° |
| 2026-04-20 20:14 | -8.75826 | 13.56909 | 9028 ft | 241 kts | 75° |
| 2026-04-20 20:15 | -8.75399 | 13.58470 | 8942 ft | 219 kts | 75° |
| 2026-04-20 20:15 | -8.75011 | 13.59891 | 8896 ft | 204 kts | 75° |
| 2026-04-20 20:15 | -8.74702 | 13.61287 | 8653 ft | 204 kts | 89° |
| 2026-04-20 20:15 | -8.75097 | 13.62636 | 8425 ft | 204 kts | 123° |
| 2026-04-20 20:16 | -8.76046 | 13.63702 | 8227 ft | 206 kts | 134° |
| 2026-04-20 20:16 | -8.77105 | 13.64703 | 7987 ft | 210 kts | 135° |
| 2026-04-20 20:16 | -8.78176 | 13.65699 | 7726 ft | 208 kts | 135° |
| 2026-04-20 20:16 | -8.79229 | 13.66679 | 7470 ft | 204 kts | 135° |
| 2026-04-20 20:17 | -8.80261 | 13.67645 | 7222 ft | 200 kts | 135° |
| 2026-04-20 20:17 | -8.81270 | 13.68595 | 6989 ft | 196 kts | 135° |
| 2026-04-20 20:17 | -8.82262 | 13.69531 | 6754 ft | 194 kts | 135° |
| 2026-04-20 20:17 | -8.83244 | 13.70459 | 6519 ft | 193 kts | 134° |
| 2026-04-20 20:18 | -8.84224 | 13.71386 | 6311 ft | 197 kts | 134° |
| 2026-04-20 20:18 | -8.85246 | 13.72353 | 6063 ft | 199 kts | 134° |
| 2026-04-20 20:18 | -8.86330 | 13.73179 | 5779 ft | 200 kts | 156° |
| 2026-04-20 20:18 | -8.87696 | 13.73342 | 5558 ft | 199 kts | 184° |
| 2026-04-20 20:19 | -8.88989 | 13.72823 | 5358 ft | 204 kts | 219° |
| 2026-04-20 20:19 | -8.89965 | 13.71787 | 5158 ft | 209 kts | 227° |
| 2026-04-20 20:19 | -8.90899 | 13.70649 | 4892 ft | 210 kts | 230° |
| 2026-04-20 20:19 | -8.91790 | 13.69487 | 4628 ft | 208 kts | 231° |
| 2026-04-20 20:20 | -8.92660 | 13.68328 | 4352 ft | 206 kts | 231° |
| 2026-04-20 20:20 | -8.93522 | 13.67171 | 4096 ft | 206 kts | 231° |
| 2026-04-20 20:20 | -8.94380 | 13.66020 | 3834 ft | 204 kts | 231° |
| 2026-04-20 20:20 | -8.95220 | 13.64892 | 3570 ft | 196 kts | 231° |
| 2026-04-20 20:21 | -8.96007 | 13.63837 | 3359 ft | 181 kts | 232° |
| 2026-04-20 20:21 | -8.96750 | 13.62840 | 3098 ft | 176 kts | 231° |
| 2026-04-20 20:21 | -8.97487 | 13.61853 | 2891 ft | 175 kts | 231° |
| 2026-04-20 20:21 | -8.98212 | 13.60880 | 2669 ft | 171 kts | 231° |
| 2026-04-20 20:22 | -8.98927 | 13.59922 | 2430 ft | 169 kts | 230° |
| 2026-04-20 20:22 | -8.99631 | 13.58978 | 2246 ft | 168 kts | 230° |
| 2026-04-20 20:22 | -9.00323 | 13.58050 | 2021 ft | 167 kts | 230° |
| 2026-04-20 20:22 | -9.01015 | 13.57122 | 1813 ft | 163 kts | 230° |
| 2026-04-20 20:23 | -9.01675 | 13.56235 | 1590 ft | 151 kts | 230° |
| 2026-04-20 20:23 | -9.02280 | 13.55425 | 1408 ft | 142 kts | 230° |
| 2026-04-20 20:23 | -9.02875 | 13.54629 | 1267 ft | 143 kts | 230° |
| 2026-04-20 20:23 | -9.03481 | 13.53820 | 1036 ft | 145 kts | 230° |
| 2026-04-20 20:24 | -9.04073 | 13.53027 | 823 ft | 139 kts | 231° |
| 2026-04-20 20:24 | -9.04665 | 13.52235 | 680 ft | 142 kts | 232° |
| 2026-04-20 20:24 | -9.05259 | 13.51439 | 585 ft | 136 kts | 232° |
| 2026-04-20 20:24 | -9.05752 | 13.50776 | 584 ft | 94 kts | 232° |
| 2026-04-20 20:25 | -9.06029 | 13.50398 | 581 ft | 40 kts | 233° |
| 2026-04-20 20:25 | -9.06164 | 13.50220 | 582 ft | 33 kts | 232° |
| 2026-04-20 20:25 | -9.06213 | 13.50143 | 580 ft | 7 kts | 237° |
| 2026-04-20 20:25 | -9.06240 | 13.50101 | 582 ft | 7 kts | 237° |
| 2026-04-20 20:26 | -9.06265 | 13.50052 | 581 ft | 10 kts | 248° |
| 2026-04-20 20:26 | -9.06288 | 13.49949 | 583 ft | 20 kts | 261° |
| 2026-04-20 20:26 | -9.06278 | 13.49835 | 584 ft | 17 kts | 311° |
| 2026-04-20 20:26 | -9.06187 | 13.49766 | 581 ft | 21 kts | 324° |
| 2026-04-20 20:27 | -9.06108 | 13.49707 | 580 ft | 19 kts | 323° |
| 2026-04-20 20:27 | -9.05977 | 13.49608 | 582 ft | 28 kts | 323° |
| 2026-04-20 20:27 | -9.05874 | 13.49536 | 580 ft | 12 kts | 345° |
| 2026-04-20 20:27 | -9.05805 | 13.49581 | 581 ft | 13 kts | 51° |
| 2026-04-20 20:28 | -9.05768 | 13.49631 | 584 ft | 14 kts | 53° |
| 2026-04-20 20:28 | -9.05697 | 13.49747 | 583 ft | 15 kts | 68° |
| 2026-04-20 20:28 | -9.05661 | 13.49810 | 582 ft | 5 kts | 54° |
| 2026-04-20 20:28 | -9.05634 | 13.49847 | 582 ft | 7 kts | 53° |
| 2026-04-20 20:29 | -9.05600 | 13.49893 | 582 ft | 9 kts | 53° |
| 2026-04-20 20:29 | -9.05558 | 13.49950 | 582 ft | 11 kts | 53° |
| 2026-04-20 20:29 | -9.05506 | 13.50000 | 583 ft | 9 kts | 10° |
| 2026-04-20 20:29 | -9.05466 | 13.49987 | 584 ft | 2 kts | 330° |
| 2026-04-20 20:30 | -9.05451 | 13.49976 | 582 ft | 0 kts | 324° |
| 2026-04-20 20:30 | -9.05446 | 13.49973 | 582 ft | 2 kts | 324° |
| 2026-04-20 20:30 | -9.05445 | 13.49972 | 583 ft | 0 kts | 324° |